x

N01 - Northeast Channel (44024) Wave Buoy

7:04pm - Thu 18th Dec 2014 All times are AST. -4 hours from GMT.

  • Sig Wave height 15.1ft
  • Peak Period 8s
  • Wind
    29mph, 43mph gusts
  • Sea Temp 47°f
  • Air Temp 42°f
  • Sea Pressure 1003.1mb
  • N01 - Northeast Channel
  • N01 - Northeast Channel

More Historic Weather Station data

Upgrade to MSW Pro to gain access to the past 30 days of data for over 8000 Wavebouys and Weather Stations around the globe.

Join Pro

Comparision Forecast

View Surf forecast
   
Thu 12/18 7:04pm 15ft 8s 29 43 mph 1003.1mb 47f 42f
6:04pm 15.5ft 8s 29 36 mph 1002.5mb 48f 43f
5:04pm 14ft 8s 31 38 mph 1001.8mb 48f 43f
4:04pm 14.5ft 8s 29 36 mph 1000.9mb 48f 43f
3:04pm 12ft 8s  -  mph - 48f -
2:04pm 11.5ft 8s  -  mph - 48f -
1:04pm 12ft 8s  -  mph - 48f -
11:04am 13ft 8s 27 34 mph 1001.4mb 48f 45f
10:04am 12ft 8s 25 31 mph 1001.7mb 48f 45f
9:04am 13ft 8s 25 34 mph 1001.6mb 48f 46f
8:04am 13ft 8s 25 29 mph 1001.5mb 49f 46f
7:04am 13.5ft 8s 25 31 mph 1001.4mb 49f 46f
6:04am 12ft 8s 27 34 mph 1001.1mb 49f 47f
5:04am 14ft 8s 27 31 mph 1000.8mb 49f 47f
4:04am 14ft 8s  -  mph - 49f -
3:04am 11ft 8s  -  mph - 49f -
2:04am 12ft 8s  -  mph - 49f -
12:04am 10ft 5s 29 36 mph 1000.4mb 50f 47f
Wed 12/17 11:04pm 6ft 5s 27 34 mph 1000.4mb 50f 46f
10:04pm 9ft 8s 25 29 mph 1000.4mb 50f 47f
9:04pm 8.5ft 8s 22 29 mph 1000.4mb 49f 49f
8:04pm 7.5ft 8s 16 20 mph 1000.8mb 50f 50f
7:04pm 6.5ft 8s 4 7 mph 1000.6mb 50f 52f
6:04pm 8ft 11s 4 7 mph 1000.9mb 49f 52f
5:04pm 7ft 8s 4 7 mph 1001.4mb 49f 51f
4:04pm 8.5ft 8s 7 9 mph 1002.5mb 49f 52f
2:04pm 8.5ft 8s 20 25 mph 1003.2mb 49f 51f
1:04pm 9ft 6s 22 25 mph 1004.6mb 49f 51f
12:04pm 9ft 5s 25 29 mph 1006.6mb 49f 50f
11:04am  -   -  25 27 mph 1008.7mb - 50f
10:04am 6.5ft 5s 22 27 mph 1010.3mb 50f 49f
9:04am 6ft 11s 20 25 mph 1011.2mb 49f 49f
8:04am 3.5ft 5s 20 22 mph 1011.7mb 49f 49f
7:04am 4.5ft 11s 20 25 mph 1012.5mb 49f 49f
6:04am 5ft 11s 20 25 mph 1012.8mb 48f 48f
5:04am 5ft 11s 20 22 mph 1013.6mb 47f 47f
4:04am  -   -  22 25 mph 1014.3mb - 46f
3:04am 3.5ft 4s 22 27 mph 1015.3mb 48f 46f
2:04am 5ft 8s 20 22 mph 1015.8mb 48f 45f
1:04am  -   -  18 20 mph 1016.6mb 48f 44f
12:04am 5ft 8s 18 20 mph 1017.2mb 48f 43f
Tue 12/16 11:04pm 5ft 11s 13 18 mph 1018.3mb 48f 43f
10:04pm 4.5ft 8s 11 13 mph 1019mb 47f 42f
9:04pm 4.5ft 8s 9 11 mph 1019.4mb 47f 42f
8:04pm 3.5ft 8s 9 11 mph 1019.6mb 47f 42f
7:04pm 3.5ft 8s 4 7 mph 1020mb 47f 41f
6:04pm 3.5ft 11s 7 9 mph 1019.4mb 47f 41f
5:04pm 3.5ft 11s 2 4 mph 1019.7mb 47f 40f
4:04pm 3.5ft 6s 4 9 mph 1019.8mb 47f 40f
3:04pm 4.5ft 11s 4 7 mph 1020.2mb 48f 40f
2:04pm 4.5ft 6s 4 7 mph 1020.3mb 48f 40f
1:04pm 5ft 8s 2 7 mph 1020.7mb 48f 40f
12:04pm 5ft 8s 4 7 mph 1021.1mb 48f 40f
11:04am 4.5ft 8s 4 7 mph 1021.6mb 48f 39f
10:04am 5ft 8s 4 7 mph 1021.6mb 47f 39f
9:04am 4.5ft 8s 4
mph
1021.5mb 47f 39f
8:04am 4ft 11s 9 13 mph 1021mb 47f 39f
7:04am 4ft 11s 7 13 mph 1020.5mb 47f 39f
6:04am 4.5ft 11s 7 11 mph 1020.3mb 47f 39f
5:04am 4ft 6s 9 13 mph 1019.9mb 47f 39f
4:04am 3.5ft 5s 7 11 mph 1019.6mb 47f 40f
3:04am 5ft 6s 9 13 mph 1019.5mb 47f 40f
2:04am 5ft 5s 11 13 mph 1019.1mb 47f 41f
1:04am 5ft 5s 9 11 mph 1018.6mb 48f 41f
12:04am 5ft 5s 7 13 mph 1018.5mb 48f 41f
Mon 12/15 11:04pm 6ft 5s 7 11 mph 1018.3mb 47f 41f
8:04pm 5ft 6s  -  mph - 48f -
5:04pm 4.5ft 6s 16 18 mph 1014.8mb 48f 42f
4:04pm 5.5ft 6s 16 20 mph 1013.8mb 47f 42f
3:04pm 5.5ft 6s 18 22 mph 1013.2mb 47f 42f
2:04pm 6ft 6s 16 20 mph 1012.4mb 47f 43f
1:04pm 6ft 6s 20 25 mph 1012mb 48f 42f
12:04pm 8ft 6s 20 22 mph 1012.3mb 48f 42f
10:04am 7ft 6s 20 27 mph 1011.7mb 48f 43f
9:04am 7ft 6s 22 27 mph 1010.9mb 48f 43f
8:04am 7ft 6s 22 27 mph 1009.8mb 48f 43f
7:04am 7ft 6s 22 27 mph 1009.3mb 48f 43f
6:04am 8ft 6s 22 27 mph 1008.2mb 48f 43f
5:04am 6.5ft 6s 20 27 mph 1007.5mb 48f 43f
3:04am 7ft 6s 20 25 mph 1007.1mb 49f 44f
2:04am 6.5ft 6s 22 29 mph 1006.4mb 48f 44f
1:04am 7ft 6s 25 29 mph 1006mb 48f 43f